Time;durP1;ratioP1;P1;durP2;ratioP2;P2;SDS_P1;SDS_P2;PMS_P1;PMS_P2;Temp;Humidity;BMP_temperature;BMP_pressure;BME280_temperature;BME280_humidity;BME280_pressure;Samples;Min_cycle;Max_cycle;Signal;HPM_P1;HPM_P2
2024/04/14 00:00:38;;;;;;;6.20;3.65;;;;;;;15.45;76.21;98962.88;5374169;26;20004;-83
2024/04/14 00:03:03;;;;;;;7.15;4.75;;;;;;;15.35;76.33;98967.47;5373866;26;20476;-83
2024/04/14 00:05:28;;;;;;;13.40;4.57;;;;;;;15.38;75.85;98965.03;5365097;26;20483;-83
2024/04/14 00:07:54;;;;;;;12.80;4.82;;;;;;;15.41;76.16;98950.22;5367445;26;20081;-83
2024/04/14 00:10:19;;;;;;;8.00;4.28;;;;;;;15.49;76.04;98969.31;5343246;26;20003;-83
2024/04/14 00:12:44;;;;;;;6.93;4.07;;;;;;;15.42;75.93;98959.91;5373031;26;20438;-82
2024/04/14 00:15:10;;;;;;;9.85;3.92;;;;;;;15.27;76.93;98946.50;5363827;26;20019;-83
2024/04/14 00:17:36;;;;;;;8.23;4.43;;;;;;;15.16;75.88;98905.41;5359188;26;20004;-83
2024/04/14 00:20:03;;;;;;;9.13;4.38;;;;;;;15.34;76.02;98952.41;5365579;26;20014;-84
2024/04/14 00:22:29;;;;;;;10.95;4.40;;;;;;;15.32;75.99;98924.97;5340336;26;20309;-83
2024/04/14 00:24:55;;;;;;;12.48;4.63;;;;;;;15.31;76.20;98934.91;5344617;26;20018;-83
2024/04/14 00:27:21;;;;;;;5.68;4.05;;;;;;;15.27;76.46;98925.00;5373446;26;20004;-83
2024/04/14 00:29:46;;;;;;;9.52;4.22;;;;;;;15.19;77.26;98931.78;5368103;26;20019;-83
2024/04/14 00:32:12;;;;;;;8.45;3.92;;;;;;;15.28;77.01;98930.13;5367801;26;20000;-83
2024/04/14 00:34:37;;;;;;;10.73;4.03;;;;;;;15.21;76.74;98928.78;5373337;26;20386;-82
2024/04/14 00:37:03;;;;;;;5.45;4.20;;;;;;;15.29;76.46;98920.16;5369455;26;20032;-83
2024/04/14 00:39:28;;;;;;;5.28;4.07;;;;;;;15.31;76.58;98924.16;5362074;26;20344;-82
2024/04/14 00:41:53;;;;;;;7.53;4.30;;;;;;;15.18;76.06;98902.47;5372293;26;20019;-83
2024/04/14 00:44:19;;;;;;;6.28;4.45;;;;;;;15.19;76.75;98912.13;5403833;26;20527;-82
2024/04/14 00:46:44;;;;;;;6.03;4.07;;;;;;;15.19;77.10;98915.63;5343027;26;20019;-83
2024/04/14 00:49:10;;;;;;;4.70;3.65;;;;;;;15.21;76.94;98918.03;5367688;26;20353;-83
2024/04/14 00:51:36;;;;;;;6.85;4.38;;;;;;;15.17;77.19;98912.41;5368669;26;20001;-83
2024/04/14 00:54:02;;;;;;;8.93;4.07;;;;;;;14.91;77.44;98902.84;5374409;26;20015;-83
2024/04/14 00:56:28;;;;;;;8.07;4.22;;;;;;;15.00;77.45;98896.63;5373819;26;20012;-83
2024/04/14 00:58:54;;;;;;;9.27;4.60;;;;;;;14.88;77.62;98874.66;5317881;26;20470;-82
2024/04/14 01:01:20;;;;;;;8.18;4.72;;;;;;;15.08;76.32;98884.50;5374022;26;20367;-83
2024/04/14 01:03:46;;;;;;;6.72;4.30;;;;;;;15.19;76.54;98901.38;5372808;26;20010;-83
2024/04/14 01:06:11;;;;;;;9.02;4.80;;;;;;;15.05;76.65;98863.53;5362676;26;20009;-83
2024/04/14 01:08:37;;;;;;;7.43;4.18;;;;;;;14.76;75.96;98831.19;5370858;26;20344;-83
2024/04/14 01:11:02;;;;;;;4.88;3.90;;;;;;;15.17;76.70;98904.34;5349810;26;20440;-84
2024/04/14 01:13:27;;;;;;;6.07;5.13;;;;;;;15.20;76.22;98900.31;5376829;26;20313;-82
2024/04/14 01:15:53;;;;;;;6.68;4.13;;;;;;;15.25;77.06;98894.88;5345510;26;20011;-82
2024/04/14 01:18:18;;;;;;;6.00;4.40;;;;;;;15.21;76.20;98894.66;5365259;26;20007;-82
2024/04/14 01:20:44;;;;;;;9.50;4.63;;;;;;;15.14;76.86;98898.72;5402767;26;20011;-83
2024/04/14 01:23:09;;;;;;;10.85;4.75;;;;;;;15.14;76.83;98901.41;5370520;26;19996;-83
2024/04/14 01:25:34;;;;;;;5.28;4.03;;;;;;;14.87;77.24;98886.47;5367773;26;20037;-83
2024/04/14 01:28:00;;;;;;;11.05;5.20;;;;;;;14.74;76.93;98857.50;5315927;26;20070;-82
2024/04/14 01:30:27;;;;;;;9.50;4.85;;;;;;;14.91;77.66;98890.22;5351233;26;20030;-82
2024/04/14 01:32:53;;;;;;;9.60;4.97;;;;;;;14.81;77.60;98898.31;5376642;26;20360;-83
2024/04/14 01:35:18;;;;;;;7.32;4.70;;;;;;;14.83;77.53;98882.72;5346867;26;20015;-82
2024/04/14 01:37:43;;;;;;;8.05;4.57;;;;;;;14.59;79.14;98868.28;5370193;26;20015;-82
2024/04/14 01:40:11;;;;;;;9.60;4.53;;;;;;;14.82;78.58;98881.13;5340200;26;20077;-82
2024/04/14 01:42:37;;;;;;;8.10;4.85;;;;;;;14.86;77.94;98890.25;5407405;26;19996;-82
2024/04/14 01:45:02;;;;;;;8.05;4.95;;;;;;;14.58;78.57;98868.56;5379831;26;20343;-83
2024/04/14 01:47:28;;;;;;;6.82;5.63;;;;;;;14.63;79.86;98895.44;5377943;26;20007;-81
2024/04/14 01:49:53;;;;;;;7.13;4.00;;;;;;;14.31;79.42;98838.59;5377810;26;20017;-82
2024/04/14 01:52:19;;;;;;;8.48;5.03;;;;;;;14.70;78.71;98883.31;5380628;26;20329;-83
2024/04/14 01:54:44;;;;;;;6.47;4.70;;;;;;;14.61;78.75;98868.03;5347915;26;20015;-83
2024/04/14 01:57:09;;;;;;;7.50;4.72;;;;;;;14.87;78.55;98891.84;5341534;26;20385;-82
2024/04/14 01:59:37;;;;;;;5.32;4.60;;;;;;;14.60;78.45;98877.16;5379087;26;20000;-83
2024/04/14 02:02:02;;;;;;;8.32;6.30;;;;;;;14.75;78.90;98896.72;5405884;26;20008;-82
2024/04/14 02:04:28;;;;;;;7.75;4.78;;;;;;;14.55;79.17;98877.97;5338979;26;20053;-81
2024/04/14 02:06:53;;;;;;;6.88;5.05;;;;;;;14.72;78.94;98893.81;5369410;26;20004;-83
2024/04/14 02:09:18;;;;;;;12.68;5.03;;;;;;;14.65;79.04;98894.09;5320157;26;20051;-83
2024/04/14 02:11:44;;;;;;;6.75;5.07;;;;;;;14.54;80.42;98884.44;5348999;26;20008;-83
2024/04/14 02:14:09;;;;;;;12.18;5.03;;;;;;;14.35;79.85;98867.28;5378309;26;20008;-83
2024/04/14 02:16:34;;;;;;;11.13;5.07;;;;;;;14.47;81.10;98908.09;5345864;26;20525;-83
2024/04/14 02:19:00;;;;;;;10.80;5.03;;;;;;;14.59;79.82;98908.59;5367114;26;20012;-83
2024/04/14 02:21:25;;;;;;;12.75;6.45;;;;;;;14.77;79.16;98923.31;5376661;26;20001;-83
2024/04/14 02:23:51;;;;;;;8.25;4.65;;;;;;;14.53;80.57;98912.38;5371840;26;20356;-83
2024/04/14 02:26:16;;;;;;;12.00;5.25;;;;;;;14.53;80.31;98919.63;5377319;26;19996;-84
2024/04/14 02:28:42;;;;;;;6.40;4.88;;;;;;;14.58;79.81;98909.69;5374278;26;22262;-84
2024/04/14 02:31:07;;;;;;;8.35;4.97;;;;;;;14.58;79.73;98920.44;5344415;26;20004;-83
2024/04/14 02:33:33;;;;;;;11.00;5.50;;;;;;;14.54;80.00;98921.25;5347934;26;20011;-84
2024/04/14 02:36:00;;;;;;;8.02;4.88;;;;;;;14.17;80.09;98897.38;5370952;26;20004;-84
2024/04/14 02:38:26;;;;;;;15.07;6.55;;;;;;;14.51;78.95;98927.16;5345087;26;19996;-83
2024/04/14 02:40:56;;;;;;;5.78;4.50;;;;;;;14.48;79.63;98936.53;5338875;26;20004;-84
2024/04/14 02:43:21;;;;;;;9.30;5.65;;;;;;;14.33;77.96;98939.25;5379383;26;20011;-83
2024/04/14 02:45:47;;;;;;;7.78;4.75;;;;;;;14.34;78.71;98946.25;5345416;26;20000;-83
2024/04/14 02:48:12;;;;;;;9.77;5.03;;;;;;;14.34;76.49;98946.25;5365135;26;19992;-83
2024/04/14 02:50:38;;;;;;;8.65;4.75;;;;;;;14.35;77.09;98952.44;5370712;26;20138;-83
2024/04/14 02:53:03;;;;;;;9.40;4.97;;;;;;;14.06;75.89;98898.47;5341838;26;20333;-82
2024/04/14 02:55:28;;;;;;;7.28;4.88;;;;;;;14.09;75.33;98909.44;5339053;26;19996;-83
2024/04/14 02:57:55;;;;;;;7.32;3.55;;;;;;;14.19;75.01;98925.56;5372392;26;20472;-83
2024/04/14 03:00:20;;;;;;;7.63;4.38;;;;;;;14.46;74.03;98948.66;5347241;26;20034;-83
2024/04/14 03:02:45;;;;;;;7.75;3.92;;;;;;;14.36;73.61;98956.72;5344138;26;20040;-83
2024/04/14 03:05:11;;;;;;;6.70;3.67;;;;;;;14.26;72.83;98952.13;5377365;26;20007;-83
2024/04/14 03:07:36;;;;;;;7.38;4.47;;;;;;;14.32;72.96;98961.81;5379682;26;20016;-82
2024/04/14 03:10:01;;;;;;;8.13;3.40;;;;;;;14.19;73.23;98962.34;5374610;26;20433;-83
2024/04/14 03:12:27;;;;;;;4.95;3.63;;;;;;;14.17;72.28;98976.03;5363820;26;20016;-84
2024/04/14 03:14:52;;;;;;;8.25;4.07;;;;;;;14.06;72.88;98960.19;5347521;26;20008;-83
2024/04/14 03:17:20;;;;;;;7.60;5.10;;;;;;;14.02;72.13;98970.63;5372104;26;20008;-82
2024/04/14 03:19:50;;;;;;;7.50;3.95;;;;;;;13.99;72.66;98971.19;5367513;26;20007;-83
2024/04/14 03:22:16;;;;;;;8.35;5.28;;;;;;;13.81;72.36;98949.41;5365924;26;20031;-83
2024/04/14 03:24:41;;;;;;;8.07;5.80;;;;;;;13.91;71.88;98965.53;5363103;26;19996;-83
2024/04/14 03:27:06;;;;;;;5.03;4.13;;;;;;;14.00;73.00;98982.72;5364725;26;20001;-83
2024/04/14 03:29:32;;;;;;;8.13;5.00;;;;;;;13.94;72.53;98984.59;5366679;26;20073;-82
2024/04/14 03:31:57;;;;;;;9.02;5.22;;;;;;;13.89;73.57;98973.06;5341644;26;20019;-83
2024/04/14 03:34:22;;;;;;;8.25;4.28;;;;;;;14.10;72.78;98994.28;5374294;26;20015;-83
2024/04/14 03:36:48;;;;;;;6.28;4.15;;;;;;;14.13;73.11;98999.09;5370109;26;20018;-83
2024/04/14 03:39:13;;;;;;;6.65;4.68;;;;;;;14.13;73.25;99004.47;5365526;26;20468;-83
2024/04/14 03:41:39;;;;;;;8.35;5.82;;;;;;;13.82;73.12;98991.28;5369262;26;20000;-82
2024/04/14 03:44:04;;;;;;;6.88;4.72;;;;;;;13.86;73.00;98978.94;5371212;26;20441;-82
2024/04/14 03:46:29;;;;;;;8.30;5.10;;;;;;;14.10;72.32;98993.47;5335093;26;20000;-81
2024/04/14 03:48:55;;;;;;;6.47;4.40;;;;;;;13.95;72.90;98969.31;5370638;26;20007;-82
2024/04/14 03:51:20;;;;;;;9.93;5.10;;;;;;;13.96;72.42;98989.69;5368592;26;20015;-83
2024/04/14 03:53:45;;;;;;;8.20;5.43;;;;;;;13.93;73.45;98983.00;5373045;26;20004;-82
2024/04/14 03:56:11;;;;;;;10.02;4.88;;;;;;;13.89;73.16;98973.06;5345279;26;20000;-82
2024/04/14 03:58:36;;;;;;;10.25;4.95;;;;;;;14.05;72.62;98980.84;5337160;26;20004;-83
2024/04/14 04:01:01;;;;;;;10.27;5.68;;;;;;;14.06;73.31;99014.69;5369716;26;19996;-83
2024/04/14 04:03:27;;;;;;;7.90;4.97;;;;;;;14.00;73.73;99006.88;5338192;26;19997;-83
2024/04/14 04:05:56;;;;;;;10.82;4.82;;;;;;;14.03;72.92;99009.84;5343619;26;20635;-83
2024/04/14 04:08:22;;;;;;;6.75;4.82;;;;;;;14.06;73.16;99011.19;5377169;26;20004;-83
2024/04/14 04:10:59;;;;;;;11.30;5.40;;;;;;;13.77;72.81;98984.03;5377540;26;20328;-82
2024/04/14 04:13:26;;;;;;;8.23;4.63;;;;;;;13.70;72.17;99014.84;5378389;26;20475;-83
2024/04/14 04:15:58;;;;;;;8.38;5.22;;;;;;;13.92;73.32;99026.19;5368068;26;20012;-82
2024/04/14 04:18:24;;;;;;;8.20;5.45;;;;;;;13.70;73.16;99028.25;5373189;26;19996;-83
2024/04/14 04:20:58;;;;;;;10.15;4.75;;;;;;;13.59;72.47;99029.28;5378032;26;20016;-82
2024/04/14 04:23:24;;;;;;;7.70;4.32;;;;;;;13.51;72.57;99001.94;5377877;26;20001;-82
2024/04/14 04:25:50;;;;;;;11.65;5.75;;;;;;;13.50;72.68;99019.09;5343956;26;20017;-82
2024/04/14 04:28:16;;;;;;;9.90;5.10;;;;;;;13.70;72.61;99025.56;5367195;26;20020;-82
2024/04/14 04:30:41;;;;;;;7.57;4.75;;;;;;;13.51;73.00;99017.22;5366838;26;20451;-82
2024/04/14 04:33:06;;;;;;;13.40;5.07;;;;;;;13.64;73.01;99032.00;5344894;26;20074;-82
2024/04/14 04:35:32;;;;;;;7.15;4.25;;;;;;;13.36;72.62;99034.06;5370954;26;20007;-83
2024/04/14 04:38:01;;;;;;;7.97;4.72;;;;;;;13.44;73.25;99024.69;5370119;26;20047;-84
2024/04/14 04:40:27;;;;;;;9.45;4.45;;;;;;;13.48;72.88;99037.31;5370994;26;20000;-82
2024/04/14 04:42:52;;;;;;;9.75;4.97;;;;;;;13.22;72.29;99027.56;5366710;26;20011;-83
2024/04/14 04:45:18;;;;;;;11.10;4.78;;;;;;;13.10;72.74;98989.44;5373460;26;20015;-82
2024/04/14 04:47:44;;;;;;;10.90;4.43;;;;;;;13.52;72.30;99041.09;5341241;26;20007;-82
2024/04/14 04:50:09;;;;;;;12.68;4.20;;;;;;;13.47;72.85;99041.09;5377276;26;19996;-82
2024/04/14 04:52:35;;;;;;;12.68;4.20;;;;;;;13.57;72.39;99050.22;5371689;26;19997;-82
2024/04/14 04:55:01;;;;;;;13.07;5.13;;;;;;;13.54;72.41;99049.66;5382597;26;20000;-82
2024/04/14 04:57:26;;;;;;;9.07;4.60;;;;;;;13.54;72.27;99041.63;5374125;26;20008;-82
2024/04/14 04:59:52;;;;;;;10.00;3.50;;;;;;;13.60;71.77;99063.09;5340224;26;20004;-82
2024/04/14 05:02:17;;;;;;;14.80;5.45;;;;;;;13.40;72.32;99045.06;5376761;26;20005;-82
2024/04/14 05:04:42;;;;;;;10.93;5.05;;;;;;;13.47;72.40;99065.22;5404881;26;19996;-82
2024/04/14 05:07:08;;;;;;;9.65;3.90;;;;;;;13.48;71.92;99069.50;5373804;26;20019;-83
2024/04/14 05:09:33;;;;;;;8.73;4.13;;;;;;;13.42;72.38;99059.81;5374309;26;20077;-84
2024/04/14 05:11:58;;;;;;;7.88;4.18;;;;;;;13.38;72.49;99074.00;5376255;26;19996;-83
2024/04/14 05:14:24;;;;;;;14.75;4.60;;;;;;;13.49;72.03;99063.06;5380799;26;20011;-83
2024/04/14 05:16:49;;;;;;;6.35;4.53;;;;;;;13.59;72.20;99082.94;5341358;26;20020;-83
2024/04/14 05:19:14;;;;;;;7.75;4.07;;;;;;;13.55;71.93;99063.88;5362977;26;20004;-82
2024/04/14 05:21:40;;;;;;;8.77;3.90;;;;;;;13.33;72.60;99072.09;5355785;26;20360;-83
2024/04/14 05:24:11;;;;;;;10.45;4.18;;;;;;;13.25;72.88;99077.16;5359640;26;19997;-83
2024/04/14 05:26:36;;;;;;;9.10;4.38;;;;;;;13.43;72.43;99080.19;5372954;26;20026;-83
2024/04/14 05:29:02;;;;;;;5.45;3.80;;;;;;;13.36;72.41;99073.47;5355010;26;20024;-82
2024/04/14 05:31:27;;;;;;;8.43;4.63;;;;;;;13.36;72.87;99082.31;5344261;26;19997;-82
2024/04/14 05:33:54;;;;;;;7.70;3.60;;;;;;;13.40;73.43;99106.72;5357260;26;20000;-82
2024/04/14 05:36:19;;;;;;;7.70;3.85;;;;;;;13.16;72.90;99051.91;5362181;26;20008;-82
2024/04/14 05:38:47;;;;;;;11.30;4.50;;;;;;;13.52;72.30;99089.34;5374530;26;20000;-83
2024/04/14 05:41:13;;;;;;;7.95;5.00;;;;;;;13.61;72.38;99105.75;5375711;26;19996;-83
2024/04/14 05:43:39;;;;;;;9.73;4.18;;;;;;;13.27;72.95;99073.16;5367752;26;20000;-83
2024/04/14 05:46:04;;;;;;;10.95;4.82;;;;;;;13.60;72.50;99106.03;5369299;26;20000;-83
2024/04/14 05:48:29;;;;;;;13.10;4.85;;;;;;;13.65;72.68;99103.38;5367977;26;20028;-83
2024/04/14 05:50:55;;;;;;;8.57;5.05;;;;;;;13.61;72.94;99096.91;5370556;26;20444;-82
2024/04/14 05:53:20;;;;;;;11.55;4.80;;;;;;;13.69;72.56;99107.94;5377628;26;19997;-83
2024/04/14 05:55:46;;;;;;;10.90;5.03;;;;;;;13.54;73.16;99103.31;5373034;26;19996;-82
2024/04/14 05:58:11;;;;;;;7.85;4.45;;;;;;;13.76;73.02;99113.84;5378422;26;20008;-82
2024/04/14 06:00:36;;;;;;;11.07;4.25;;;;;;;13.82;72.13;99115.53;5372295;26;19997;-82
2024/04/14 06:03:02;;;;;;;11.90;4.93;;;;;;;13.90;72.34;99123.06;5372686;26;19996;-83
2024/04/14 06:05:27;;;;;;;8.05;4.38;;;;;;;13.90;71.84;99127.59;5347644;26;19996;-83
2024/04/14 06:07:52;;;;;;;10.00;4.28;;;;;;;13.92;71.89;99131.66;5370210;26;20432;-82
2024/04/14 06:10:18;;;;;;;8.48;4.65;;;;;;;13.84;72.16;99120.59;5378007;26;19996;-82
2024/04/14 06:12:43;;;;;;;7.53;4.22;;;;;;;14.05;71.86;99141.06;5376036;26;20000;-83
2024/04/14 06:15:08;;;;;;;10.98;5.70;;;;;;;13.83;71.94;99143.94;5375992;26;20007;-81
2024/04/14 06:17:34;;;;;;;9.25;4.25;;;;;;;13.95;72.19;99141.06;5372921;26;20030;-82
2024/04/14 06:19:59;;;;;;;9.75;4.75;;;;;;;14.01;72.38;99137.31;5344354;26;19996;-83
2024/04/14 06:22:24;;;;;;;9.45;4.45;;;;;;;13.85;72.71;99116.84;5350154;26;20454;-83
2024/04/14 06:24:50;;;;;;;14.02;4.80;;;;;;;13.96;72.04;99145.34;5376443;26;20011;-83
2024/04/14 06:27:15;;;;;;;10.30;4.53;;;;;;;13.79;72.60;99117.91;5374206;26;20011;-82
2024/04/14 06:29:40;;;;;;;9.45;4.55;;;;;;;14.08;71.84;99144.06;5366726;26;19992;-83
2024/04/14 06:32:06;;;;;;;13.68;6.00;;;;;;;14.07;71.43;99139.75;5376205;26;20011;-83
2024/04/14 06:34:31;;;;;;;11.00;4.97;;;;;;;14.02;71.70;99157.72;5368822;26;19992;-82
2024/04/14 06:36:56;;;;;;;7.97;4.22;;;;;;;13.91;71.20;99132.69;5346973;26;20558;-82
2024/04/14 06:39:22;;;;;;;10.32;4.40;;;;;;;14.11;71.22;99156.13;5343182;26;20011;-83
2024/04/14 06:41:47;;;;;;;12.88;4.95;;;;;;;14.19;71.24;99153.75;5376900;26;20085;-82
2024/04/14 06:44:13;;;;;;;7.75;3.72;;;;;;;14.13;71.49;99159.38;5340344;26;20004;-83
2024/04/14 06:46:38;;;;;;;7.75;4.38;;;;;;;14.27;71.31;99149.72;5311213;26;20016;-83
2024/04/14 06:49:03;;;;;;;6.82;4.40;;;;;;;14.24;71.51;99156.44;5370221;26;20480;-82
2024/04/14 06:51:29;;;;;;;9.57;3.90;;;;;;;14.26;71.13;99151.59;5365895;26;20020;-83
2024/04/14 06:53:56;;;;;;;10.77;5.03;;;;;;;14.25;71.05;99138.44;5346908;26;20011;-82
2024/04/14 06:56:22;;;;;;;10.50;5.13;;;;;;;14.31;71.13;99160.81;5371755;26;20081;-82
2024/04/14 06:58:47;;;;;;;11.77;4.13;;;;;;;14.28;71.55;99148.69;5372211;26;20067;-83
2024/04/14 07:01:12;;;;;;;10.52;4.90;;;;;;;14.33;71.13;99159.44;5362920;26;20545;-83
2024/04/14 07:03:38;;;;;;;8.02;4.28;;;;;;;14.31;71.54;99161.59;5368507;26;20016;-82
2024/04/14 07:06:03;;;;;;;11.35;4.65;;;;;;;14.36;71.28;99158.09;5368510;26;20711;-84
2024/04/14 07:08:29;;;;;;;11.43;4.70;;;;;;;14.14;71.29;99151.03;5375587;26;19996;-82
2024/04/14 07:10:54;;;;;;;10.57;4.40;;;;;;;14.11;71.25;99126.59;5366875;26;20357;-83
2024/04/14 07:13:19;;;;;;;9.70;4.22;;;;;;;14.31;71.32;99155.44;5350174;26;20074;-82
2024/04/14 07:15:45;;;;;;;8.20;5.25;;;;;;;14.30;70.90;99143.88;5375504;26;20012;-82
2024/04/14 07:18:10;;;;;;;10.48;5.32;;;;;;;14.07;71.16;99114.78;5339264;26;20007;-83
2024/04/14 07:20:39;;;;;;;6.82;3.97;;;;;;;14.28;70.72;99156.72;5366918;26;20009;-82
2024/04/14 07:23:04;;;;;;;11.52;4.07;;;;;;;14.20;71.27;99130.38;5368619;26;20560;-82
2024/04/14 07:25:29;;;;;;;9.90;4.38;;;;;;;14.20;70.69;99138.44;5363762;26;20000;-83
2024/04/14 07:27:55;;;;;;;13.43;4.55;;;;;;;14.45;70.67;99172.63;5365026;26;20005;-83
2024/04/14 07:30:20;;;;;;;12.00;4.72;;;;;;;14.50;70.38;99176.16;5374760;26;20019;-82
2024/04/14 07:32:45;;;;;;;10.02;4.00;;;;;;;14.48;70.00;99177.50;5334485;26;19996;-82
2024/04/14 07:35:11;;;;;;;9.43;4.75;;;;;;;14.44;70.61;99177.19;5357760;26;20004;-82
2024/04/14 07:37:36;;;;;;;13.23;5.35;;;;;;;14.56;70.34;99175.09;5358819;26;20078;-81
2024/04/14 07:40:02;;;;;;;8.52;3.78;;;;;;;14.57;70.23;99175.91;5370482;26;20030;-82
2024/04/14 07:42:27;;;;;;;8.07;3.75;;;;;;;14.36;69.90;99148.19;5362352;26;20004;-84
2024/04/14 07:44:53;;;;;;;8.35;4.05;;;;;;;14.53;69.51;99188.22;5353879;26;20009;-82
2024/04/14 07:47:19;;;;;;;9.18;4.70;;;;;;;14.37;70.02;99159.75;5359601;26;20015;-83
2024/04/14 07:49:44;;;;;;;10.90;4.65;;;;;;;14.73;70.20;99191.75;5356596;26;19997;-83
2024/04/14 07:52:09;;;;;;;7.05;3.90;;;;;;;14.56;69.32;99169.72;5358228;26;20000;-83
2024/04/14 07:54:35;;;;;;;10.02;3.78;;;;;;;14.71;69.22;99201.16;5331869;26;20004;-82
2024/04/14 07:57:01;;;;;;;11.77;3.88;;;;;;;14.79;69.40;99209.50;5334303;26;20012;-83
2024/04/14 07:59:27;;;;;;;7.50;4.20;;;;;;;14.71;69.53;99199.28;5335842;26;20007;-83
2024/04/14 08:01:52;;;;;;;8.57;4.03;;;;;;;14.56;69.68;99201.94;5356637;26;20012;-82
2024/04/14 08:04:18;;;;;;;9.57;4.38;;;;;;;14.54;70.26;99187.97;5365086;26;20000;-82
2024/04/14 08:06:43;;;;;;;8.15;4.78;;;;;;;14.71;69.91;99207.34;5370810;26;20354;-81
2024/04/14 08:09:08;;;;;;;9.30;4.32;;;;;;;14.83;69.76;99207.91;5333343;26;19992;-82
2024/04/14 08:11:34;;;;;;;11.63;4.78;;;;;;;14.80;69.84;99207.63;5363692;26;20000;-81
2024/04/14 08:14:00;;;;;;;12.32;4.57;;;;;;;14.60;69.62;99168.09;5373016;26;20036;-82
2024/04/14 08:16:25;;;;;;;7.68;4.82;;;;;;;14.80;68.94;99195.00;5363116;26;20004;-83
2024/04/14 08:18:51;;;;;;;8.52;4.10;;;;;;;14.76;69.19;99202.00;5372481;26;19996;-82
2024/04/14 08:21:16;;;;;;;10.45;4.60;;;;;;;14.64;68.99;99205.97;5339763;26;20262;-82
2024/04/14 08:23:41;;;;;;;8.10;3.85;;;;;;;14.71;69.22;99199.28;5368275;26;19993;-83
2024/04/14 08:26:07;;;;;;;14.32;4.40;;;;;;;14.62;68.45;99200.88;5359595;26;20044;-83
2024/04/14 08:28:32;;;;;;;10.80;4.60;;;;;;;14.84;69.12;99233.72;5369944;26;20075;-82
2024/04/14 08:30:57;;;;;;;5.57;3.80;;;;;;;14.97;68.95;99224.31;5342920;26;20040;-82
2024/04/14 08:33:23;;;;;;;10.80;4.35;;;;;;;14.86;68.85;99195.81;5371503;26;20007;-81
2024/04/14 08:35:48;;;;;;;8.40;3.70;;;;;;;14.84;68.37;99220.28;5368406;26;20005;-83
2024/04/14 08:38:15;;;;;;;8.57;4.07;;;;;;;14.79;68.24;99225.63;5333928;26;20008;-82
2024/04/14 08:40:50;;;;;;;9.10;3.85;;;;;;;15.05;68.54;99223.78;5369912;26;20532;-82
2024/04/14 08:43:16;;;;;;;11.80;3.65;;;;;;;14.81;67.81;99199.28;5374054;26;20016;-82
2024/04/14 08:45:42;;;;;;;8.13;4.05;;;;;;;14.92;68.94;99218.91;5359197;26;20476;-83
2024/04/14 08:48:13;;;;;;;10.25;5.03;;;;;;;14.80;67.61;99219.19;5366448;26;19992;-82
2024/04/14 08:50:39;;;;;;;10.82;3.78;;;;;;;14.70;68.73;99219.16;5372204;26;20011;-83
2024/04/14 08:53:07;;;;;;;6.97;3.20;;;;;;;14.85;68.41;99219.19;5372232;26;19996;-83
2024/04/14 08:55:32;;;;;;;9.75;3.97;;;;;;;14.99;67.92;99222.16;5342630;26;20014;-83
2024/04/14 08:57:58;;;;;;;10.23;5.10;;;;;;;14.77;67.58;99222.41;5365144;26;20001;-83
2024/04/14 09:00:24;;;;;;;7.07;3.65;;;;;;;14.79;67.02;99209.50;5342122;26;19997;-82
2024/04/14 09:02:50;;;;;;;10.45;4.22;;;;;;;14.92;67.31;99233.19;5358208;26;20080;-83
2024/04/14 09:05:15;;;;;;;7.15;2.58;;;;;;;14.86;66.92;99222.69;5375524;26;20008;-83
2024/04/14 09:07:44;;;;;;;8.63;3.72;;;;;;;15.03;66.23;99239.38;5344059;26;20535;-83
2024/04/14 09:10:09;;;;;;;5.18;3.17;;;;;;;14.98;67.11;99242.06;5370828;26;20069;-83
2024/04/14 09:12:35;;;;;;;9.93;3.25;;;;;;;15.06;66.74;99230.78;5336031;26;20020;-82
2024/04/14 09:15:03;;;;;;;14.50;3.67;;;;;;;15.10;65.81;99241.78;5369175;26;20351;-81
2024/04/14 09:17:29;;;;;;;11.77;3.38;;;;;;;15.12;66.24;99234.25;5371611;26;20012;-82
2024/04/14 09:19:55;;;;;;;7.30;2.97;;;;;;;14.84;67.58;99236.41;5368094;26;19996;-82
2024/04/14 09:22:20;;;;;;;10.27;3.05;;;;;;;15.07;66.62;99236.97;5367658;26;20001;-82
2024/04/14 09:24:46;;;;;;;6.93;3.17;;;;;;;15.19;66.51;99248.25;5310521;26;20015;-81
2024/04/14 09:27:11;;;;;;;4.68;2.45;;;;;;;14.85;65.15;99216.50;5366902;26;19996;-81
2024/04/14 09:29:37;;;;;;;8.75;2.72;;;;;;;15.17;65.76;99250.41;5361604;26;20008;-82
2024/04/14 09:32:03;;;;;;;5.03;2.22;;;;;;;15.12;64.40;99232.38;5365475;26;20023;-82
2024/04/14 09:34:28;;;;;;;6.22;2.33;;;;;;;15.22;64.42;99245.84;5357867;26;20431;-82
2024/04/14 09:36:54;;;;;;;4.97;2.53;;;;;;;15.34;63.76;99240.19;5368470;26;20020;-82
2024/04/14 09:39:20;;;;;;;4.65;2.25;;;;;;;15.17;63.81;99237.78;5377421;26;20309;-83
2024/04/14 09:41:46;;;;;;;4.97;2.65;;;;;;;15.03;64.53;99223.22;5373200;26;19996;-83
2024/04/14 09:44:12;;;;;;;8.20;2.20;;;;;;;15.36;63.01;99249.59;5343032;26;19992;-83
2024/04/14 09:46:38;;;;;;;6.82;2.25;;;;;;;15.41;63.71;99260.38;5373784;26;20011;-83
2024/04/14 09:49:04;;;;;;;5.97;2.10;;;;;;;15.25;63.50;99239.09;5373565;26;20077;-83
2024/04/14 09:51:30;;;;;;;5.68;1.85;;;;;;;15.31;63.02;99244.22;5373682;26;20438;-83
2024/04/14 09:53:58;;;;;;;4.55;2.58;;;;;;;15.55;63.08;99257.97;5373392;26;20115;-84
2024/04/14 09:56:24;;;;;;;5.38;2.05;;;;;;;15.51;63.41;99246.94;5374144;26;20022;-83
2024/04/14 09:58:49;;;;;;;5.55;2.22;;;;;;;15.48;63.16;99247.50;5374723;26;20429;-83
2024/04/14 10:01:20;;;;;;;6.30;1.98;;;;;;;15.65;61.65;99266.03;5371618;26;20101;-83
2024/04/14 10:03:47;;;;;;;4.45;2.17;;;;;;;15.55;63.09;99271.44;5371986;26;20498;-83
2024/04/14 10:06:15;;;;;;;3.22;2.28;;;;;;;15.53;61.48;99266.31;5366003;26;20118;-83
2024/04/14 10:08:40;;;;;;;3.60;1.70;;;;;;;15.41;61.62;99235.34;5366555;26;20046;-82
2024/04/14 10:11:06;;;;;;;4.35;2.40;;;;;;;15.70;62.05;99250.66;5335982;26;20012;-84
2024/04/14 10:13:57;;;;;;;6.28;2.05;;;;;;;15.64;61.38;99242.88;5344377;26;20008;-84
2024/04/14 10:16:25;;;;;;;2.88;1.50;;;;;;;15.69;62.50;99249.06;5349692;26;20069;-83
2024/04/14 10:18:50;;;;;;;7.25;2.17;;;;;;;16.08;60.49;99259.19;5377535;26;20005;-83
2024/04/14 10:21:18;;;;;;;11.18;1.88;;;;;;;15.65;61.21;99236.44;5381063;26;20009;-83
2024/04/14 10:23:47;;;;;;;7.30;2.58;;;;;;;15.68;61.29;99227.81;5375920;26;20019;-82
2024/04/14 10:26:17;;;;;;;7.00;2.00;;;;;;;15.98;60.23;99262.75;5351256;26;20004;-82
2024/04/14 10:28:51;;;;;;;5.25;2.28;;;;;;;16.07;60.69;99252.22;5375640;26;20000;-83
2024/04/14 10:31:30;;;;;;;3.47;1.90;;;;;;;16.07;60.40;99255.72;5370382;26;20012;-82
2024/04/14 10:34:09;;;;;;;5.60;1.85;;;;;;;16.40;59.21;99246.19;5375477;26;19997;-83
2024/04/14 10:36:36;;;;;;;4.03;1.70;;;;;;;15.88;59.11;99154.28;5372980;26;20440;-83
2024/04/14 10:39:04;;;;;;;3.58;1.90;;;;;;;16.41;59.33;99228.91;5375938;26;20004;-83
2024/04/14 10:41:30;;;;;;;4.93;2.08;;;;;;;16.34;58.56;99198.75;5372285;26;19996;-83
2024/04/14 10:43:55;;;;;;;5.90;1.92;;;;;;;16.37;59.19;99263.69;5378673;26;20011;-82
2024/04/14 10:46:21;;;;;;;4.75;2.00;;;;;;;16.62;58.58;99243.13;5377468;26;20078;-82
2024/04/14 10:48:46;;;;;;;8.55;2.10;;;;;;;16.60;59.01;99242.63;5373946;26;20324;-81
2024/04/14 10:51:13;;;;;;;4.40;1.75;;;;;;;16.72;57.28;99226.91;5365540;26;20015;-82
2024/04/14 10:53:38;;;;;;;5.32;2.05;;;;;;;16.53;57.96;99207.06;5345554;26;20053;-82
2024/04/14 10:56:04;;;;;;;4.50;2.20;;;;;;;16.51;58.32;99234.31;5357601;26;20004;-82
2024/04/14 10:58:30;;;;;;;2.47;1.55;;;;;;;16.83;56.84;99255.41;5375819;26;19996;-81
2024/04/14 11:00:56;;;;;;;6.70;2.00;;;;;;;16.70;56.95;99219.09;5376859;26;20020;-82
2024/04/14 11:03:22;;;;;;;8.57;2.22;;;;;;;16.95;56.19;99228.91;5367477;26;20004;-82
2024/04/14 11:05:49;;;;;;;2.28;1.50;;;;;;;16.88;56.37;99218.44;5370039;26;20004;-83
2024/04/14 11:08:14;;;;;;;8.40;2.30;;;;;;;17.29;56.12;99240.53;5338746;26;20367;-82
2024/04/14 11:10:41;;;;;;;6.97;3.03;;;;;;;17.13;55.49;99226.34;5347772;26;20039;-82
2024/04/14 11:13:08;;;;;;;22.00;3.40;;;;;;;17.26;55.96;99227.59;5365931;26;20514;-81
2024/04/14 11:15:33;;;;;;;3.60;1.88;;;;;;;17.13;55.86;99210.16;5373706;26;20032;-82
2024/04/14 11:17:59;;;;;;;4.47;2.17;;;;;;;17.39;55.59;99223.41;5369015;26;20004;-81
2024/04/14 11:20:25;;;;;;;6.80;2.40;;;;;;;16.94;54.72;99135.63;5378600;26;20460;-83
2024/04/14 11:22:50;;;;;;;3.63;2.08;;;;;;;17.62;54.17;99210.03;5378685;26;20011;-81
2024/04/14 11:25:16;;;;;;;2.25;2.13;;;;;;;17.63;54.77;99229.72;5346682;26;20008;-82